Time;durP1;ratioP1;P1;durP2;ratioP2;P2;SDS_P1;SDS_P2;PMS_P1;PMS_P2;Temp;Humidity;BMP_temperature;BMP_pressure;BME280_temperature;BME280_humidity;BME280_pressure;Samples;Min_cycle;Max_cycle;Signal;HPM_P1;HPM_P2
2024/01/27 00:01:43;;;;;;;29.05;5.57;;;;;;;;;;4970347;28;25068;-63
2024/01/27 00:04:09;;;;;;;28.80;6.50;;;;;;;;;;4987422;28;25066;-63
2024/01/27 00:06:35;;;;;;;27.55;5.47;;;;;;;;;;4964418;28;25071;-63
2024/01/27 00:09:01;;;;;;;23.08;5.20;;;;;;;;;;4960643;28;25092;-63
2024/01/27 00:11:27;;;;;;;22.50;5.43;;;;;;;;;;4970459;28;25101;-63
2024/01/27 00:13:53;;;;;;;26.55;5.88;;;;;;;;;;4973020;28;25078;-64
2024/01/27 00:16:22;;;;;;;23.35;5.50;;;;;;;;;;4973900;28;25076;-63
2024/01/27 00:18:48;;;;;;;24.23;5.97;;;;;;;;;;4964353;28;25089;-63
2024/01/27 00:21:14;;;;;;;19.25;4.93;;;;;;;;;;4968894;28;25143;-64
2024/01/27 00:23:41;;;;;;;24.70;4.75;;;;;;;;;;4969299;28;25071;-65
2024/01/27 00:26:07;;;;;;;23.60;5.22;;;;;;;;;;4967951;28;25126;-64
2024/01/27 00:28:33;;;;;;;23.35;6.03;;;;;;;;;;4965537;28;25180;-65
2024/01/27 00:30:59;;;;;;;21.13;5.38;;;;;;;;;;4970953;28;25137;-63
2024/01/27 00:33:25;;;;;;;21.58;5.13;;;;;;;;;;4970583;28;25068;-63
2024/01/27 00:35:51;;;;;;;25.40;6.00;;;;;;;;;;4968036;28;25088;-64
2024/01/27 00:38:17;;;;;;;17.73;5.32;;;;;;;;;;4967272;28;25068;-65
2024/01/27 00:40:43;;;;;;;22.33;5.25;;;;;;;;;;4967401;28;25068;-65
2024/01/27 00:43:09;;;;;;;25.27;6.18;;;;;;;;;;4967141;28;25065;-64
2024/01/27 00:45:35;;;;;;;28.92;6.53;;;;;;;;;;4968018;28;25162;-64
2024/01/27 00:48:01;;;;;;;20.63;5.22;;;;;;;;;;4967249;28;25122;-64
2024/01/27 00:50:27;;;;;;;24.05;6.40;;;;;;;;;;4967767;28;25123;-65
2024/01/27 00:52:53;;;;;;;20.17;5.35;;;;;;;;;;4967988;28;25061;-65
2024/01/27 00:55:19;;;;;;;31.95;5.50;;;;;;;;;;4967947;28;25094;-66
2024/01/27 00:57:45;;;;;;;24.13;6.80;;;;;;;;;;4968564;28;25163;-67
2024/01/27 01:00:11;;;;;;;21.90;6.10;;;;;;;;;;4973771;28;25069;-65
2024/01/27 01:02:38;;;;;;;22.65;4.90;;;;;;;;;;4972562;28;25114;-65
2024/01/27 01:05:04;;;;;;;28.02;5.38;;;;;;;;;;4988222;28;25128;-64
2024/01/27 01:07:33;;;;;;;28.95;5.43;;;;;;;;;;4968884;28;25132;-65
2024/01/27 01:09:59;;;;;;;37.08;5.82;;;;;;;;;;4969110;28;25155;-64
2024/01/27 01:12:25;;;;;;;29.73;5.38;;;;;;;;;;4968902;28;25085;-64
2024/01/27 01:14:51;;;;;;;34.45;6.18;;;;;;;;;;4954184;28;25049;-64
2024/01/27 01:17:17;;;;;;;29.30;6.15;;;;;;;;;;4973556;28;25136;-63
2024/01/27 01:19:43;;;;;;;29.13;6.90;;;;;;;;;;4967187;28;25096;-65
2024/01/27 01:22:09;;;;;;;24.23;6.03;;;;;;;;;;4969462;28;25147;-65
2024/01/27 01:24:35;;;;;;;23.27;6.25;;;;;;;;;;4971570;28;25071;-64
2024/01/27 01:27:01;;;;;;;26.50;5.88;;;;;;;;;;4974206;28;25151;-63
2024/01/27 01:29:27;;;;;;;21.92;5.95;;;;;;;;;;4962282;28;25060;-64
2024/01/27 01:31:53;;;;;;;27.15;7.68;;;;;;;;;;4962961;28;25094;-65
2024/01/27 01:34:19;;;;;;;33.60;6.43;;;;;;;;;;4973641;28;25096;-64
2024/01/27 01:36:45;;;;;;;19.58;5.55;;;;;;;;;;4970206;28;25106;-64
2024/01/27 01:39:13;;;;;;;28.30;6.35;;;;;;;;;;4969369;28;25077;-64
2024/01/27 01:41:39;;;;;;;19.88;6.57;;;;;;;;;;4955721;28;25082;-65
2024/01/27 01:44:05;;;;;;;24.20;5.80;;;;;;;;;;4964795;28;24806;-65
2024/01/27 01:46:31;;;;;;;28.73;6.95;;;;;;;;;;4966980;28;25164;-62
2024/01/27 01:48:57;;;;;;;30.88;7.40;;;;;;;;;;4966900;28;25089;-63
2024/01/27 01:51:23;;;;;;;24.70;6.18;;;;;;;;;;4966492;28;25117;-63
2024/01/27 01:53:49;;;;;;;32.65;6.70;;;;;;;;;;4966053;28;25066;-64
2024/01/27 01:56:16;;;;;;;30.35;6.75;;;;;;;;;;4968802;28;25132;-64
2024/01/27 01:58:42;;;;;;;26.02;6.50;;;;;;;;;;4966282;28;25114;-64
2024/01/27 02:01:08;;;;;;;20.25;5.90;;;;;;;;;;4968788;28;25068;-65
2024/01/27 02:03:34;;;;;;;33.00;7.85;;;;;;;;;;4969352;28;25080;-64
2024/01/27 02:06:00;;;;;;;23.45;6.72;;;;;;;;;;4967452;28;25054;-64
2024/01/27 02:08:26;;;;;;;27.75;7.40;;;;;;;;;;4965305;28;25055;-64
2024/01/27 02:10:52;;;;;;;34.28;7.22;;;;;;;;;;4967858;28;25107;-65
2024/01/27 02:13:19;;;;;;;33.20;7.20;;;;;;;;;;4966406;28;25085;-66
2024/01/27 02:15:45;;;;;;;20.67;6.40;;;;;;;;;;4966525;28;25105;-65
2024/01/27 02:18:11;;;;;;;29.10;7.60;;;;;;;;;;4962768;28;25066;-64
2024/01/27 02:20:37;;;;;;;34.15;7.25;;;;;;;;;;4957869;28;25135;-64
2024/01/27 02:23:04;;;;;;;29.85;8.15;;;;;;;;;;4974038;28;25083;-64
2024/01/27 02:25:30;;;;;;;25.85;7.15;;;;;;;;;;4971822;28;25154;-64
2024/01/27 02:27:56;;;;;;;36.92;7.47;;;;;;;;;;4977453;28;25084;-63
2024/01/27 02:30:22;;;;;;;23.27;7.28;;;;;;;;;;4973578;28;25079;-64
2024/01/27 02:32:48;;;;;;;33.50;8.27;;;;;;;;;;4967522;28;25071;-64
2024/01/27 02:35:14;;;;;;;30.98;8.43;;;;;;;;;;4959141;28;25122;-63
2024/01/27 02:37:43;;;;;;;29.65;8.57;;;;;;;;;;4970035;28;25149;-64
2024/01/27 02:40:10;;;;;;;35.00;9.80;;;;;;;;;;4980376;28;25134;-65
2024/01/27 02:42:36;;;;;;;20.85;7.65;;;;;;;;;;4968041;28;25054;-63
2024/01/27 02:45:02;;;;;;;27.55;7.70;;;;;;;;;;4966963;28;25090;-64
2024/01/27 02:47:28;;;;;;;27.45;8.27;;;;;;;;;;4968384;28;25054;-64
2024/01/27 02:49:54;;;;;;;24.90;8.18;;;;;;;;;;4961025;28;25145;-64
2024/01/27 02:52:20;;;;;;;35.25;8.82;;;;;;;;;;4965476;28;25070;-64
2024/01/27 02:54:46;;;;;;;27.55;8.93;;;;;;;;;;4966519;28;25066;-64
2024/01/27 02:57:13;;;;;;;31.23;9.80;;;;;;;;;;4959209;28;25090;-63
2024/01/27 02:59:39;;;;;;;23.02;8.30;;;;;;;;;;4961134;28;25162;-64
2024/01/27 03:02:08;;;;;;;30.08;8.70;;;;;;;;;;4962440;28;25047;-63
2024/01/27 03:04:34;;;;;;;37.97;9.68;;;;;;;;;;4964041;28;25056;-64
2024/01/27 03:07:00;;;;;;;26.20;8.75;;;;;;;;;;4970501;28;25160;-64
2024/01/27 03:09:26;;;;;;;29.98;9.77;;;;;;;;;;4969481;28;25070;-65
2024/01/27 03:11:51;;;;;;;30.02;9.23;;;;;;;;;;4968678;28;25051;-63
2024/01/27 03:14:17;;;;;;;30.38;8.82;;;;;;;;;;4969751;28;25050;-63
2024/01/27 03:16:44;;;;;;;38.72;11.45;;;;;;;;;;4969962;28;25086;-64
2024/01/27 03:19:10;;;;;;;24.10;10.60;;;;;;;;;;4971922;28;25057;-64
2024/01/27 03:21:36;;;;;;;33.38;9.55;;;;;;;;;;4969714;28;25082;-65
2024/01/27 03:24:02;;;;;;;25.48;10.05;;;;;;;;;;4969703;28;25059;-64
2024/01/27 03:26:28;;;;;;;42.95;11.05;;;;;;;;;;4992846;28;25086;-63
2024/01/27 03:28:54;;;;;;;29.95;11.52;;;;;;;;;;4966285;28;25099;-65
2024/01/27 03:31:20;;;;;;;32.90;12.43;;;;;;;;;;4972845;28;25081;-64
2024/01/27 03:33:47;;;;;;;27.05;10.77;;;;;;;;;;4972291;28;25172;-66
2024/01/27 03:36:13;;;;;;;29.80;11.02;;;;;;;;;;4983355;28;25075;-64
2024/01/27 03:38:41;;;;;;;35.25;12.38;;;;;;;;;;4975112;28;25073;-64
2024/01/27 03:41:07;;;;;;;34.92;13.50;;;;;;;;;;4970533;28;25060;-63
2024/01/27 03:43:36;;;;;;;40.72;12.90;;;;;;;;;;4966933;28;25097;-63
2024/01/27 03:46:03;;;;;;;31.02;11.88;;;;;;;;;;4969010;28;25065;-64
2024/01/27 03:48:29;;;;;;;34.47;12.52;;;;;;;;;;4963734;28;25072;-63
2024/01/27 03:50:55;;;;;;;26.55;11.25;;;;;;;;;;4968912;28;25062;-64
2024/01/27 03:53:21;;;;;;;43.55;12.45;;;;;;;;;;4969070;28;25077;-63
2024/01/27 03:55:47;;;;;;;34.63;12.40;;;;;;;;;;4968884;28;25065;-64
2024/01/27 03:58:13;;;;;;;28.67;13.77;;;;;;;;;;4966688;28;25057;-66
2024/01/27 04:00:39;;;;;;;30.02;12.50;;;;;;;;;;4968575;28;25072;-63
2024/01/27 04:03:05;;;;;;;24.27;12.32;;;;;;;;;;4967241;28;25097;-64
2024/01/27 04:05:31;;;;;;;35.38;13.35;;;;;;;;;;4967588;28;25107;-64
2024/01/27 04:07:57;;;;;;;34.38;13.60;;;;;;;;;;4968117;28;25248;-63
2024/01/27 04:10:23;;;;;;;30.92;12.25;;;;;;;;;;4968493;28;25101;-65
2024/01/27 04:12:49;;;;;;;28.95;13.43;;;;;;;;;;4968142;28;25065;-63
2024/01/27 04:15:15;;;;;;;42.20;15.10;;;;;;;;;;4968543;28;25069;-64
2024/01/27 04:17:42;;;;;;;42.63;14.32;;;;;;;;;;4973998;28;25106;-64
2024/01/27 04:20:09;;;;;;;32.65;12.85;;;;;;;;;;4967879;28;25094;-65
2024/01/27 04:22:35;;;;;;;36.55;14.48;;;;;;;;;;4966789;28;25088;-64
2024/01/27 04:25:02;;;;;;;39.92;14.85;;;;;;;;;;4968506;28;25074;-64
2024/01/27 04:27:28;;;;;;;33.03;13.05;;;;;;;;;;4962589;28;25060;-64
2024/01/27 04:29:54;;;;;;;31.60;13.15;;;;;;;;;;4979667;28;25134;-64
2024/01/27 04:32:21;;;;;;;31.98;13.98;;;;;;;;;;4977094;28;25100;-65
2024/01/27 04:34:47;;;;;;;31.33;13.23;;;;;;;;;;4969496;28;25042;-65
2024/01/27 04:37:13;;;;;;;36.35;13.48;;;;;;;;;;4958949;28;25088;-64
2024/01/27 04:39:39;;;;;;;34.13;14.68;;;;;;;;;;4968593;28;25062;-64
2024/01/27 04:42:08;;;;;;;37.85;14.98;;;;;;;;;;4970241;28;25050;-63
2024/01/27 04:44:34;;;;;;;30.10;13.68;;;;;;;;;;4981404;28;25152;-65
2024/01/27 04:47:00;;;;;;;38.17;16.90;;;;;;;;;;4979747;28;25094;-63
2024/01/27 04:49:26;;;;;;;32.38;13.23;;;;;;;;;;4975470;28;25062;-63
2024/01/27 04:51:52;;;;;;;45.75;14.98;;;;;;;;;;4978261;28;25070;-63
2024/01/27 04:54:18;;;;;;;30.50;14.68;;;;;;;;;;4964856;28;25092;-64
2024/01/27 04:56:44;;;;;;;30.63;14.68;;;;;;;;;;4966383;28;25046;-64
2024/01/27 04:59:10;;;;;;;36.17;14.45;;;;;;;;;;4972162;28;25134;-64
2024/01/27 05:01:36;;;;;;;39.63;15.77;;;;;;;;;;4967994;28;25174;-64
2024/01/27 05:04:02;;;;;;;32.42;14.25;;;;;;;;;;4969038;28;25093;-64
2024/01/27 05:06:28;;;;;;;41.20;15.93;;;;;;;;;;4971263;28;25055;-65
2024/01/27 05:08:54;;;;;;;31.27;14.63;;;;;;;;;;4970181;28;25136;-65
2024/01/27 05:11:29;;;;;;;30.48;15.45;;;;;;;;;;4975145;28;25126;-64
2024/01/27 05:13:55;;;;;;;33.72;16.45;;;;;;;;;;4967647;28;25087;-64
2024/01/27 05:16:21;;;;;;;30.98;16.55;;;;;;;;;;4966745;28;25078;-63
2024/01/27 05:18:48;;;;;;;37.38;16.67;;;;;;;;;;4972338;28;25059;-64
2024/01/27 05:21:14;;;;;;;35.50;16.48;;;;;;;;;;4967769;28;25092;-63
2024/01/27 05:23:41;;;;;;;32.08;15.85;;;;;;;;;;4969274;28;25099;-64
2024/01/27 05:26:07;;;;;;;34.30;18.17;;;;;;;;;;4972084;28;25065;-64
2024/01/27 05:28:33;;;;;;;37.13;17.95;;;;;;;;;;4966950;28;25232;-65
2024/01/27 05:30:59;;;;;;;28.52;15.68;;;;;;;;;;4967082;28;25074;-64
2024/01/27 05:33:25;;;;;;;37.78;17.20;;;;;;;;;;4967758;28;25147;-64
2024/01/27 05:35:51;;;;;;;38.55;18.20;;;;;;;;;;4970711;28;25057;-64
2024/01/27 05:38:17;;;;;;;38.25;17.13;;;;;;;;;;4969763;28;25061;-63
2024/01/27 05:40:45;;;;;;;38.35;17.70;;;;;;;;;;4968330;28;25108;-64
2024/01/27 05:43:11;;;;;;;35.13;17.75;;;;;;;;;;4966746;28;25062;-65
2024/01/27 05:45:37;;;;;;;36.10;16.63;;;;;;;;;;4965941;28;25145;-64
2024/01/27 05:48:03;;;;;;;34.67;17.42;;;;;;;;;;4969935;28;25121;-63
2024/01/27 05:50:30;;;;;;;38.55;17.45;;;;;;;;;;4969862;28;25097;-64
2024/01/27 05:52:56;;;;;;;40.58;17.73;;;;;;;;;;4962753;28;25097;-65
2024/01/27 05:55:22;;;;;;;34.25;16.55;;;;;;;;;;4968517;28;25119;-64
2024/01/27 05:57:48;;;;;;;38.88;17.83;;;;;;;;;;4966717;28;25056;-64
2024/01/27 06:00:14;;;;;;;40.17;18.90;;;;;;;;;;4965966;28;25077;-65
2024/01/27 06:02:40;;;;;;;31.33;17.55;;;;;;;;;;4968174;28;25058;-64
2024/01/27 06:05:08;;;;;;;36.47;16.77;;;;;;;;;;4987036;28;25133;-64
2024/01/27 06:07:34;;;;;;;35.05;17.13;;;;;;;;;;4967470;28;25156;-65
2024/01/27 06:10:00;;;;;;;42.72;16.90;;;;;;;;;;4966329;28;25066;-63
2024/01/27 06:12:26;;;;;;;36.10;15.13;;;;;;;;;;4969334;28;25073;-64
2024/01/27 06:14:53;;;;;;;29.02;16.15;;;;;;;;;;4954500;28;25069;-64
2024/01/27 06:17:19;;;;;;;38.20;16.67;;;;;;;;;;4956365;28;25118;-64
2024/01/27 06:19:45;;;;;;;37.97;17.08;;;;;;;;;;4970312;28;25091;-64
2024/01/27 06:22:12;;;;;;;31.75;14.77;;;;;;;;;;4971216;28;25112;-65
2024/01/27 06:24:42;;;;;;;33.53;16.30;;;;;;;;;;4971792;28;25149;-65
2024/01/27 06:27:08;;;;;;;41.22;17.90;;;;;;;;;;4974656;28;25071;-66
2024/01/27 06:29:34;;;;;;;42.05;17.50;;;;;;;;;;4976205;28;25067;-64
2024/01/27 06:32:00;;;;;;;33.97;17.42;;;;;;;;;;4966123;28;25067;-65
2024/01/27 06:34:26;;;;;;;34.90;17.38;;;;;;;;;;4966416;28;25113;-64
2024/01/27 06:36:52;;;;;;;26.52;17.17;;;;;;;;;;4965016;28;25093;-64
2024/01/27 06:39:18;;;;;;;36.53;19.38;;;;;;;;;;4966968;28;25052;-64
2024/01/27 06:41:44;;;;;;;40.50;18.23;;;;;;;;;;4967179;28;25119;-65
2024/01/27 06:44:10;;;;;;;34.85;17.00;;;;;;;;;;4966105;28;25132;-64
2024/01/27 06:46:36;;;;;;;37.70;18.85;;;;;;;;;;4964634;28;25065;-64
2024/01/27 06:49:02;;;;;;;40.25;19.30;;;;;;;;;;4966472;28;25136;-64
2024/01/27 06:51:28;;;;;;;41.33;17.50;;;;;;;;;;4966925;28;25058;-64
2024/01/27 06:53:54;;;;;;;38.65;18.65;;;;;;;;;;4960733;28;25135;-64
2024/01/27 06:56:20;;;;;;;46.72;20.30;;;;;;;;;;4966156;28;25086;-64
2024/01/27 06:58:46;;;;;;;41.05;21.33;;;;;;;;;;4965770;28;25063;-63
2024/01/27 07:01:12;;;;;;;44.83;20.42;;;;;;;;;;4971065;28;25099;-65
2024/01/27 07:03:39;;;;;;;38.30;19.85;;;;;;;;;;4966224;28;25082;-65
2024/01/27 07:06:05;;;;;;;45.63;20.38;;;;;;;;;;4967054;28;25090;-63
2024/01/27 07:08:32;;;;;;;39.38;19.23;;;;;;;;;;4971472;28;25053;-64
2024/01/27 07:10:58;;;;;;;36.15;18.00;;;;;;;;;;4969362;28;25050;-67
2024/01/27 07:13:24;;;;;;;33.22;18.80;;;;;;;;;;4966231;28;25057;-65
2024/01/27 07:15:50;;;;;;;31.95;19.67;;;;;;;;;;4965720;28;25069;-64
2024/01/27 07:18:17;;;;;;;35.33;18.83;;;;;;;;;;4964820;28;25077;-65
2024/01/27 07:20:43;;;;;;;36.60;19.45;;;;;;;;;;4971115;28;25068;-64
2024/01/27 07:23:09;;;;;;;32.72;18.60;;;;;;;;;;4964813;28;25071;-66
2024/01/27 07:25:35;;;;;;;41.65;20.80;;;;;;;;;;4968990;28;25100;-64
2024/01/27 07:28:01;;;;;;;39.97;21.23;;;;;;;;;;4960337;28;25139;-64
2024/01/27 07:30:27;;;;;;;40.58;19.83;;;;;;;;;;4968596;28;25066;-64
2024/01/27 07:32:53;;;;;;;35.38;19.92;;;;;;;;;;4966968;28;25074;-64
2024/01/27 07:35:19;;;;;;;47.65;19.23;;;;;;;;;;4964055;28;25090;-67
2024/01/27 07:37:45;;;;;;;42.55;19.75;;;;;;;;;;4960877;28;25090;-64
2024/01/27 07:40:11;;;;;;;36.03;18.88;;;;;;;;;;4965230;28;25065;-64
2024/01/27 07:42:37;;;;;;;37.13;19.63;;;;;;;;;;4989073;28;25064;-64
2024/01/27 07:45:03;;;;;;;41.47;20.25;;;;;;;;;;4964710;28;25079;-65
2024/01/27 07:47:29;;;;;;;44.42;20.77;;;;;;;;;;4965009;28;25147;-65
2024/01/27 07:49:55;;;;;;;54.35;23.60;;;;;;;;;;4965614;28;25073;-65
2024/01/27 07:52:21;;;;;;;53.67;23.15;;;;;;;;;;4984764;28;25078;-64
2024/01/27 07:54:47;;;;;;;46.35;23.77;;;;;;;;;;4970238;28;25075;-64
2024/01/27 07:57:13;;;;;;;50.72;22.77;;;;;;;;;;4974357;28;25133;-64
2024/01/27 07:59:39;;;;;;;49.42;21.67;;;;;;;;;;4968722;28;25060;-64
2024/01/27 08:02:05;;;;;;;37.05;20.08;;;;;;;;;;4969807;28;25071;-64
2024/01/27 08:04:31;;;;;;;47.47;23.25;;;;;;;;;;4967624;28;25172;-65
2024/01/27 08:06:57;;;;;;;38.45;20.77;;;;;;;;;;4967671;28;25081;-64
2024/01/27 08:09:24;;;;;;;39.85;20.92;;;;;;;;;;4974763;28;25063;-64
2024/01/27 08:11:53;;;;;;;36.42;17.60;;;;;;;;;;4969885;28;25054;-64
2024/01/27 08:14:20;;;;;;;52.30;22.23;;;;;;;;;;4968702;28;25123;-65
2024/01/27 08:16:46;;;;;;;52.03;22.92;;;;;;;;;;4967907;28;25055;-63
2024/01/27 08:19:12;;;;;;;45.80;21.38;;;;;;;;;;4969456;28;24955;-64
2024/01/27 08:21:38;;;;;;;44.40;20.27;;;;;;;;;;4968516;28;25053;-65
2024/01/27 08:24:05;;;;;;;44.20;24.20;;;;;;;;;;4969522;28;25071;-63
2024/01/27 08:26:31;;;;;;;40.53;21.92;;;;;;;;;;4964575;28;25116;-65
2024/01/27 08:28:58;;;;;;;41.38;21.48;;;;;;;;;;4969724;28;25059;-65
2024/01/27 08:31:24;;;;;;;47.10;21.70;;;;;;;;;;4968441;28;25096;-65
2024/01/27 08:33:50;;;;;;;41.90;22.80;;;;;;;;;;4969649;28;25102;-64
2024/01/27 08:36:16;;;;;;;41.92;22.50;;;;;;;;;;4970986;28;25073;-65
2024/01/27 08:38:42;;;;;;;46.45;22.30;;;;;;;;;;4973090;28;25074;-64
2024/01/27 08:41:08;;;;;;;51.50;23.00;;;;;;;;;;4973472;28;25070;-64
2024/01/27 08:43:34;;;;;;;46.65;23.23;;;;;;;;;;4971290;28;25065;-64
2024/01/27 08:46:00;;;;;;;36.15;20.50;;;;;;;;;;4984661;28;25055;-64
2024/01/27 08:48:26;;;;;;;53.45;23.25;;;;;;;;;;4974430;28;25072;-65
2024/01/27 08:50:52;;;;;;;40.80;21.52;;;;;;;;;;4969522;28;25068;-65
2024/01/27 08:53:18;;;;;;;38.95;21.27;;;;;;;;;;4966784;28;25082;-65
2024/01/27 08:55:44;;;;;;;47.03;20.83;;;;;;;;;;4967287;28;25144;-64
2024/01/27 08:58:10;;;;;;;45.78;21.00;;;;;;;;;;4962322;28;25068;-66
2024/01/27 09:00:36;;;;;;;36.88;19.27;;;;;;;;;;4966731;28;25107;-65
2024/01/27 09:03:03;;;;;;;39.85;19.48;;;;;;;;;;4965826;28;25074;-65
2024/01/27 09:05:29;;;;;;;38.65;17.77;;;;;;;;;;4965605;28;25159;-65
2024/01/27 09:07:55;;;;;;;47.17;21.83;;;;;;;;;;4966004;28;25070;-66
2024/01/27 09:10:21;;;;;;;48.30;18.50;;;;;;;;;;4967793;28;25130;-65
2024/01/27 09:12:47;;;;;;;41.05;18.55;;;;;;;;;;4966496;28;25154;-65
2024/01/27 09:15:13;;;;;;;39.55;18.10;;;;;;;;;;4966419;28;25052;-65
2024/01/27 09:17:39;;;;;;;43.78;19.60;;;;;;;;;;4966514;28;25062;-65
2024/01/27 09:20:06;;;;;;;36.47;18.80;;;;;;;;;;4967765;28;25092;-65
2024/01/27 09:22:32;;;;;;;36.75;18.42;;;;;;;;;;4967858;28;25077;-65
2024/01/27 09:24:58;;;;;;;42.00;19.02;;;;;;;;;;4968830;28;25088;-66
2024/01/27 09:27:24;;;;;;;43.47;20.35;;;;;;;;;;4975555;28;25059;-64
2024/01/27 09:29:50;;;;;;;43.78;19.42;;;;;;;;;;4975748;28;25066;-65
2024/01/27 09:32:15;;;;;;;42.08;18.20;;;;;;;;;;4969726;28;25055;-64
2024/01/27 09:34:41;;;;;;;37.25;19.60;;;;;;;;;;4968552;28;25156;-64
2024/01/27 09:37:07;;;;;;;32.60;17.10;;;;;;;;;;4963711;28;25064;-65
2024/01/27 09:39:33;;;;;;;46.28;18.80;;;;;;;;;;4960116;28;25171;-65
2024/01/27 09:42:02;;;;;;;41.45;17.33;;;;;;;;;;4969278;28;25077;-65
2024/01/27 09:44:28;;;;;;;39.45;16.63;;;;;;;;;;4964183;28;25106;-65
2024/01/27 09:46:55;;;;;;;40.60;16.40;;;;;;;;;;4965272;28;25112;-66
2024/01/27 09:49:21;;;;;;;46.65;20.83;;;;;;;;;;4965368;28;25069;-65
2024/01/27 09:51:48;;;;;;;32.10;18.02;;;;;;;;;;4967832;28;25064;-67
2024/01/27 09:54:14;;;;;;;37.53;16.75;;;;;;;;;;4967226;28;25084;-63
2024/01/27 09:56:40;;;;;;;42.50;19.48;;;;;;;;;;4967803;28;25056;-65
2024/01/27 09:59:06;;;;;;;39.35;16.90;;;;;;;;;;4968983;28;25068;-66
2024/01/27 10:01:33;;;;;;;40.15;17.73;;;;;;;;;;4970438;28;25085;-65
2024/01/27 10:03:59;;;;;;;42.72;16.77;;;;;;;;;;4968307;28;25075;-66
2024/01/27 10:06:25;;;;;;;35.95;16.38;;;;;;;;;;4971742;28;25064;-65
2024/01/27 10:08:55;;;;;;;34.42;15.30;;;;;;;;;;4968464;28;25148;-64
2024/01/27 10:11:22;;;;;;;42.85;17.27;;;;;;;;;;4967908;28;25080;-64
2024/01/27 10:13:59;;;;;;;35.10;16.88;;;;;;;;;;4964271;28;25146;-64
2024/01/27 10:16:25;;;;;;;35.70;16.20;;;;;;;;;;4971719;28;25078;-65
2024/01/27 10:19:03;;;;;;;47.85;16.52;;;;;;;;;;4966965;28;25061;-64
2024/01/27 10:21:30;;;;;;;35.38;15.00;;;;;;;;;;4982250;28;25062;-64
2024/01/27 10:23:56;;;;;;;34.47;15.05;;;;;;;;;;4966215;28;25069;-66
2024/01/27 10:26:22;;;;;;;52.65;15.30;;;;;;;;;;4963420;28;25047;-65
2024/01/27 10:28:55;;;;;;;38.78;15.50;;;;;;;;;;4966172;28;25151;-65
2024/01/27 10:31:26;;;;;;;28.83;13.77;;;;;;;;;;4970597;28;25081;-66
2024/01/27 10:33:56;;;;;;;37.38;15.43;;;;;;;;;;4962786;28;25073;-65
2024/01/27 10:36:22;;;;;;;34.47;13.52;;;;;;;;;;4966343;28;25076;-65
2024/01/27 10:38:48;;;;;;;36.83;14.32;;;;;;;;;;4965704;28;25088;-65
2024/01/27 10:41:20;;;;;;;36.50;14.93;;;;;;;;;;4962960;28;25048;-66
2024/01/27 10:43:50;;;;;;;37.22;14.10;;;;;;;;;;4964185;28;25069;-65
2024/01/27 10:46:17;;;;;;;27.02;11.98;;;;;;;;;;4971474;28;25065;-65
2024/01/27 10:48:44;;;;;;;29.35;12.02;;;;;;;;;;4970922;28;25089;-65
2024/01/27 10:51:10;;;;;;;39.45;12.48;;;;;;;;;;4976765;28;25065;-64
2024/01/27 10:53:39;;;;;;;34.35;12.32;;;;;;;;;;4967108;28;25076;-65
2024/01/27 10:56:07;;;;;;;28.17;11.15;;;;;;;;;;4965912;28;25067;-66
2024/01/27 10:58:40;;;;;;;39.55;13.68;;;;;;;;;;4984527;28;25102;-67
2024/01/27 11:01:08;;;;;;;34.25;10.73;;;;;;;;;;4971437;28;25100;-65
2024/01/27 11:03:34;;;;;;;35.10;11.18;;;;;;;;;;4964315;28;25104;-64
2024/01/27 11:06:01;;;;;;;27.85;9.40;;;;;;;;;;4966020;28;25077;-66
2024/01/27 11:08:30;;;;;;;27.33;9.48;;;;;;;;;;4965656;28;25077;-65
2024/01/27 11:10:56;;;;;;;31.88;10.77;;;;;;;;;;4965429;28;25083;-63
2024/01/27 11:13:24;;;;;;;26.73;9.35;;;;;;;;;;4962629;28;25151;-65
2024/01/27 11:15:53;;;;;;;34.13;11.02;;;;;;;;;;4969814;28;25051;-63
2024/01/27 11:18:19;;;;;;;25.17;9.35;;;;;;;;;;4969944;28;25003;-63
2024/01/27 11:20:45;;;;;;;27.48;10.13;;;;;;;;;;4991263;28;25057;-64
2024/01/27 11:23:14;;;;;;;34.35;10.50;;;;;;;;;;4963647;28;25118;-65
2024/01/27 11:25:41;;;;;;;29.08;9.50;;;;;;;;;;4965981;28;25068;-63
2024/01/27 11:28:14;;;;;;;29.67;9.10;;;;;;;;;;4974089;28;25092;-65
2024/01/27 11:30:45;;;;;;;26.33;9.40;;;;;;;;;;4989978;28;25053;-64
2024/01/27 11:33:11;;;;;;;35.58;11.00;;;;;;;;;;4970225;28;25148;-65
2024/01/27 11:35:37;;;;;;;29.63;10.32;;;;;;;;;;4972717;28;25049;-64
2024/01/27 11:38:03;;;;;;;30.80;9.10;;;;;;;;;;4965144;28;25052;-65
2024/01/27 11:40:29;;;;;;;37.15;9.77;;;;;;;;;;4955047;28;25070;-64
2024/01/27 11:43:02;;;;;;;25.25;9.60;;;;;;;;;;4969397;28;25064;-65
2024/01/27 11:45:29;;;;;;;27.67;9.43;;;;;;;;;;4969552;28;25141;-66
2024/01/27 11:47:55;;;;;;;20.15;8.23;;;;;;;;;;4971913;28;25122;-66
2024/01/27 11:50:21;;;;;;;29.20;9.95;;;;;;;;;;4973905;28;25064;-64
2024/01/27 11:52:47;;;;;;;30.58;8.95;;;;;;;;;;4979436;28;25134;-67
2024/01/27 11:55:15;;;;;;;25.23;8.98;;;;;;;;;;4981337;28;25086;-65
2024/01/27 11:57:41;;;;;;;26.08;9.40;;;;;;;;;;4979425;28;25079;-64
2024/01/27 12:00:09;;;;;;;34.17;10.88;;;;;;;;;;4994451;28;25063;-66
2024/01/27 12:02:35;;;;;;;28.35;9.75;;;;;;;;;;4979579;28;25065;-67
2024/01/27 12:05:01;;;;;;;26.27;9.63;;;;;;;;;;4975183;28;25067;-65
2024/01/27 12:07:27;;;;;;;25.50;8.95;;;;;;;;;;4969860;28;25081;-66
2024/01/27 12:09:53;;;;;;;29.00;8.77;;;;;;;;;;4975624;28;25063;-65
2024/01/27 12:12:20;;;;;;;35.30;10.05;;;;;;;;;;4970421;28;25070;-65
2024/01/27 12:14:47;;;;;;;21.40;8.85;;;;;;;;;;4966711;28;25066;-65
2024/01/27 12:17:13;;;;;;;27.50;8.65;;;;;;;;;;4974387;28;25077;-66
2024/01/27 12:19:39;;;;;;;32.28;8.85;;;;;;;;;;4968910;28;25072;-65
2024/01/27 12:22:18;;;;;;;28.40;8.52;;;;;;;;;;4968944;28;25077;-65
2024/01/27 12:24:44;;;;;;;25.65;9.07;;;;;;;;;;4971901;28;25099;-68
2024/01/27 12:27:11;;;;;;;22.00;7.60;;;;;;;;;;4973398;28;25095;-66
2024/01/27 12:29:37;;;;;;;25.05;7.72;;;;;;;;;;4972871;28;25070;-65
2024/01/27 12:32:03;;;;;;;33.53;9.35;;;;;;;;;;4971068;28;25045;-65
2024/01/27 12:34:29;;;;;;;20.70;7.55;;;;;;;;;;4968686;28;25066;-66
2024/01/27 12:36:56;;;;;;;28.10;7.90;;;;;;;;;;4969213;28;25079;-69
2024/01/27 12:39:22;;;;;;;27.92;8.27;;;;;;;;;;4969199;28;25069;-70
2024/01/27 12:41:48;;;;;;;22.35;6.80;;;;;;;;;;4964366;28;25103;-65
2024/01/27 12:44:14;;;;;;;28.05;8.50;;;;;;;;;;4964730;28;25061;-65
2024/01/27 12:46:40;;;;;;;28.70;7.32;;;;;;;;;;4972569;28;25084;-66
2024/01/27 12:49:06;;;;;;;24.88;6.40;;;;;;;;;;4969483;28;25091;-66
2024/01/27 12:51:32;;;;;;;22.50;7.05;;;;;;;;;;4969462;28;25084;-66
2024/01/27 12:53:57;;;;;;;23.25;6.60;;;;;;;;;;4964078;28;25103;-66
2024/01/27 12:56:24;;;;;;;27.38;7.22;;;;;;;;;;4966325;28;25064;-65
2024/01/27 12:58:50;;;;;;;22.00;7.05;;;;;;;;;;4972170;28;25051;-67
2024/01/27 13:01:16;;;;;;;28.63;7.53;;;;;;;;;;4965143;28;25154;-68
2024/01/27 13:03:42;;;;;;;17.48;6.55;;;;;;;;;;4966755;28;25076;-65
2024/01/27 13:06:08;;;;;;;25.67;6.80;;;;;;;;;;4966399;28;25120;-66
2024/01/27 13:08:34;;;;;;;24.75;6.70;;;;;;;;;;4967378;28;25060;-67
2024/01/27 13:11:00;;;;;;;24.08;6.78;;;;;;;;;;4968602;28;25102;-65
2024/01/27 13:13:26;;;;;;;24.85;6.47;;;;;;;;;;4972928;28;25089;-66
2024/01/27 13:15:52;;;;;;;25.00;6.15;;;;;;;;;;4967138;28;25077;-69
2024/01/27 13:18:18;;;;;;;22.60;6.18;;;;;;;;;;4975015;28;25054;-65
2024/01/27 13:20:44;;;;;;;27.90;6.78;;;;;;;;;;4977090;28;25067;-66
2024/01/27 13:23:10;;;;;;;21.15;6.47;;;;;;;;;;4968492;28;25135;-66
2024/01/27 13:25:36;;;;;;;24.52;7.18;;;;;;;;;;4966762;28;25068;-65
2024/01/27 13:28:02;;;;;;;31.15;7.53;;;;;;;;;;4970696;28;25052;-65
2024/01/27 13:30:28;;;;;;;25.70;6.50;;;;;;;;;;4963898;28;25086;-65
2024/01/27 13:32:54;;;;;;;20.10;7.13;;;;;;;;;;4967979;28;25074;-66
2024/01/27 13:35:20;;;;;;;22.48;6.95;;;;;;;;;;4972572;28;25059;-66
2024/01/27 13:37:48;;;;;;;23.90;5.60;;;;;;;;;;4971274;28;25070;-65
2024/01/27 13:40:14;;;;;;;33.05;7.47;;;;;;;;;;4966364;28;25112;-66
2024/01/27 13:42:40;;;;;;;23.67;7.72;;;;;;;;;;4968204;28;25130;-66
2024/01/27 13:45:06;;;;;;;25.58;7.35;;;;;;;;;;4967443;28;25064;-65
2024/01/27 13:47:32;;;;;;;34.65;7.55;;;;;;;;;;4966879;28;25127;-65
2024/01/27 13:49:58;;;;;;;23.08;7.38;;;;;;;;;;4967476;28;25096;-66
2024/01/27 13:52:24;;;;;;;27.35;8.15;;;;;;;;;;4967082;28;25059;-65
2024/01/27 13:54:50;;;;;;;23.45;6.60;;;;;;;;;;4969077;28;25062;-65
2024/01/27 13:57:16;;;;;;;22.48;7.78;;;;;;;;;;4967431;28;25057;-65
2024/01/27 13:59:42;;;;;;;30.30;7.97;;;;;;;;;;4984366;28;25063;-65
2024/01/27 14:02:08;;;;;;;28.98;6.80;;;;;;;;;;4972392;28;25075;-65
2024/01/27 14:04:35;;;;;;;30.23;7.68;;;;;;;;;;4968550;28;25076;-67
2024/01/27 14:07:06;;;;;;;29.60;7.50;;;;;;;;;;4966656;28;25068;-66
2024/01/27 14:09:32;;;;;;;22.40;7.30;;;;;;;;;;4966894;28;25071;-66
2024/01/27 14:11:58;;;;;;;25.60;7.20;;;;;;;;;;4971418;28;25053;-67
2024/01/27 14:14:24;;;;;;;32.63;7.63;;;;;;;;;;4966911;28;25123;-66
2024/01/27 14:16:50;;;;;;;23.27;7.18;;;;;;;;;;4967505;28;25055;-66
2024/01/27 14:19:16;;;;;;;22.20;7.00;;;;;;;;;;4977401;28;25077;-65